Tuscaloosa Regional Airport Tuscaloosa US
ICAO: KTCL
IATA: TCL
Category: Medium
Scheduled Services: No

Elevation: 170 ft
TransAlt. 18000 ft.

Airport Communications:
BIRMINGHAM APP/DEP:120.15
ASOS:132.825
CTAF:126.3
GND:121.8
ANNISTON RDO:122.2
TWR:126.3
UNICOM:122.95

KTCL Zoom In..

If you have problems with the map follow the link
https://www.worldairports.se/pages/airport.php?
ICAO=KTCL

Runways:

(A) RW 04 length 6499 ft width 150 ft
ILS 109.10 / hdg 41

(B) RW 11 length 4001 ft width 100 ft
---- / hdg 117

(C) RW 22 length 6499 ft width 150 ft
---- / hdg 221

(D) RW 29 length 4001 ft width 100 ft
---- / hdg 297

Location; KTCL
Day. 10 / Time. 02.53 Zulu
* Altimeter: 29.92
* Temperature: 21° c. 69.8°f.
* Wind from: KTC° Speed L kn.
Dewpoint: 17° c.
Visibility: 10 Statute Miles.
Clouds: Few 2000 ft.
Clouds: Broken 3500 ft.
Clouds: Overcast 4600 ft.

KTCL 100253Z AUTO 19008KT 10SM FEW020 BKN035 OVC046 21/17 A2992 RMK AO2 SLP131 T02060167 50005


Wind From KTC°
Speed L kn.

 
 
jpsmedia worldairports.se 2019   terms of use